LIBN

Lecce Galatina Air Base Airport

Italy
TAF LIBN 161400Z 1615/1624 23010KT CAVOK
Issued Valid From Valid To
Jul-16 @ 14:00 UTC
(6 hours ago)
Jul-16 @ 15:00 UTC
(5 hours ago)
Jul-17 @ 00:00 UTC
(in 4 hours)
Jul-16 @ 15:00 to Jul-17 @ 00:00
TAF LIBN 161400Z 1615/1624 23010KT CAVOK
Wind Visibility Clouds Conditions
230° at 10 knots 10,000+ meters
  • No significant clouds
TAF LIBN 161400Z 1615/1624 23010KT CAVOK
Issued Jul-16 @ 14:00 UTC
(6 hours ago)
Valid From Jul-16 @ 15:00 UTC
(5 hours ago)
Valid To Jul-17 @ 00:00 UTC
(in 4 hours)
Jul-16 @ 15:00 - Jul-17 @ 00:00
Wind Visibility
230° at 10 knots 10,000+ meters
Clouds
  • No significant clouds
Conditions